createdAt,value
2019-03-26T00:00:26.956Z,92.00
2019-03-26T00:02:53.528Z,91.60
2019-03-26T00:05:19.711Z,91.50
2019-03-26T00:07:45.941Z,91.50
2019-03-26T00:10:12.196Z,91.40
2019-03-26T00:12:38.420Z,91.60
2019-03-26T00:15:06.131Z,91.60
2019-03-26T00:17:32.340Z,91.40
2019-03-26T00:19:58.506Z,91.50
2019-03-26T00:22:24.684Z,91.10
2019-03-26T00:24:50.866Z,91.20
2019-03-26T00:27:17.060Z,91.40
2019-03-26T00:29:43.224Z,91.60
2019-03-26T00:32:09.425Z,91.50
2019-03-26T00:34:35.623Z,91.50
2019-03-26T00:37:01.820Z,91.50
2019-03-26T00:39:28.002Z,91.30
2019-03-26T00:41:54.208Z,91.50
2019-03-26T00:44:20.412Z,92.00
2019-03-26T00:46:47.659Z,91.60
2019-03-26T00:49:13.857Z,91.30
2019-03-26T00:51:40.057Z,91.50
2019-03-26T00:54:06.220Z,91.30
2019-03-26T00:56:32.386Z,91.30
2019-03-26T00:58:58.571Z,91.00
2019-03-26T01:01:24.758Z,91.00
2019-03-26T01:03:50.936Z,91.10
2019-03-26T01:06:17.112Z,91.40
2019-03-26T01:08:43.291Z,91.40
2019-03-26T01:11:09.492Z,91.40
2019-03-26T01:13:35.660Z,91.50
2019-03-26T01:16:01.856Z,91.40
2019-03-26T01:18:28.205Z,91.40
2019-03-26T01:20:55.852Z,91.60
2019-03-26T01:23:22.121Z,91.50
2019-03-26T01:25:48.334Z,91.60
2019-03-26T01:28:15.615Z,91.70
2019-03-26T01:30:41.925Z,91.70
2019-03-26T01:33:08.126Z,92.00
2019-03-26T01:35:34.310Z,92.10
2019-03-26T01:38:00.500Z,92.10
2019-03-26T01:40:26.704Z,92.10
2019-03-26T01:42:52.916Z,92.20
2019-03-26T01:45:19.119Z,92.10
2019-03-26T01:47:45.297Z,92.00
2019-03-26T01:50:11.698Z,92.00
2019-03-26T01:52:37.904Z,91.80
2019-03-26T01:55:05.391Z,92.00
2019-03-26T01:57:31.569Z,91.90
2019-03-26T01:59:57.744Z,91.70
2019-03-26T02:02:25.008Z,92.00
2019-03-26T02:04:59.923Z,91.90
2019-03-26T02:07:19.256Z,91.80
2019-03-26T02:09:45.500Z,91.50
2019-03-26T02:12:11.670Z,91.60
2019-03-26T02:14:37.842Z,91.60
2019-03-26T02:17:04.036Z,91.70
2019-03-26T02:19:30.224Z,91.60
2019-03-26T02:21:56.409Z,91.50
2019-03-26T02:24:22.573Z,91.70
2019-03-26T02:26:48.766Z,92.10
2019-03-26T02:29:14.928Z,92.10
2019-03-26T02:31:41.115Z,92.20
2019-03-26T02:34:07.274Z,91.90
2019-03-26T02:36:33.466Z,92.00
2019-03-26T02:39:01.217Z,92.00
2019-03-26T02:41:29.302Z,91.90
2019-03-26T02:43:55.493Z,91.80
2019-03-26T02:46:21.679Z,92.10
2019-03-26T02:48:47.849Z,92.00
2019-03-26T02:51:14.033Z,91.80
2019-03-26T02:53:40.211Z,91.80
2019-03-26T02:56:06.456Z,91.70
2019-03-26T02:58:32.652Z,92.00
2019-03-26T03:00:58.813Z,92.20
2019-03-26T03:03:25.010Z,92.10
2019-03-26T03:05:51.207Z,92.50
2019-03-26T03:08:17.664Z,92.40
2019-03-26T03:10:43.892Z,92.30
2019-03-26T03:13:10.166Z,92.10
2019-03-26T03:15:39.402Z,92.10
2019-03-26T03:18:08.319Z,92.30
2019-03-26T03:20:34.480Z,92.00
2019-03-26T03:23:00.667Z,91.80
2019-03-26T03:25:26.857Z,91.90
2019-03-26T03:27:53.056Z,92.10
2019-03-26T03:30:19.430Z,91.80
2019-03-26T03:32:45.627Z,91.80
2019-03-26T03:35:12.000Z,92.00
2019-03-26T03:37:38.165Z,91.90
2019-03-26T03:40:05.822Z,92.00
2019-03-26T03:42:32.187Z,92.00
2019-03-26T03:44:58.370Z,92.00
2019-03-26T03:47:28.638Z,92.00
2019-03-26T03:49:56.132Z,91.90
2019-03-26T03:52:23.213Z,91.90
2019-03-26T03:54:49.693Z,91.80
2019-03-26T03:57:16.160Z,91.80
2019-03-26T03:59:43.856Z,91.80
2019-03-26T04:02:11.505Z,91.70
2019-03-26T04:04:37.692Z,91.70
2019-03-26T04:07:03.861Z,91.50
2019-03-26T04:09:30.032Z,91.20
2019-03-26T04:11:56.253Z,91.20
2019-03-26T04:14:22.440Z,91.10
2019-03-26T04:16:49.725Z,91.10
2019-03-26T04:19:15.894Z,91.10
2019-03-26T04:21:42.088Z,91.60
2019-03-26T04:24:08.268Z,91.80
2019-03-26T04:26:34.448Z,91.30
2019-03-26T04:29:00.716Z,91.20
2019-03-26T04:31:26.894Z,91.00
2019-03-26T04:33:53.058Z,91.00
2019-03-26T04:36:26.077Z,91.10
2019-03-26T04:38:47.320Z,91.20
2019-03-26T04:41:13.564Z,91.30
2019-03-26T04:43:39.748Z,91.40
2019-03-26T04:46:05.937Z,91.40
2019-03-26T04:48:32.120Z,91.20
2019-03-26T04:50:58.332Z,91.10
2019-03-26T04:53:24.498Z,91.20
2019-03-26T04:55:50.767Z,91.20
2019-03-26T04:58:16.952Z,91.30
2019-03-26T05:00:43.155Z,91.30
2019-03-26T05:03:09.363Z,91.10
2019-03-26T05:05:35.529Z,91.20
2019-03-26T05:08:01.889Z,91.30
2019-03-26T05:10:28.069Z,91.30
2019-03-26T05:12:54.272Z,91.80
2019-03-26T05:15:20.491Z,91.50
2019-03-26T05:17:46.664Z,91.30
2019-03-26T05:20:13.028Z,91.40
2019-03-26T05:22:39.196Z,91.20
2019-03-26T05:25:06.165Z,91.20
2019-03-26T05:27:44.869Z,91.30
2019-03-26T05:30:01.058Z,91.10
2019-03-26T05:32:27.232Z,91.20
2019-03-26T05:34:53.430Z,91.20
2019-03-26T05:37:19.602Z,91.50
2019-03-26T05:39:45.826Z,91.30
2019-03-26T05:42:12.032Z,90.90
2019-03-26T05:44:38.306Z,90.70
2019-03-26T05:47:04.469Z,90.10
2019-03-26T05:49:30.666Z,90.00
2019-03-26T05:51:56.855Z,89.20
2019-03-26T05:54:23.119Z,86.60
2019-03-26T05:56:49.328Z,83.20
2019-03-26T05:59:15.528Z,80.80
2019-03-26T06:01:41.696Z,78.70
2019-03-26T06:04:07.924Z,78.50
2019-03-26T06:06:34.128Z,79.70
2019-03-26T06:09:00.288Z,81.70
2019-03-26T06:11:26.604Z,82.10
2019-03-26T06:13:53.022Z,82.80
2019-03-26T06:16:19.837Z,81.00
2019-03-26T06:18:46.015Z,80.30
2019-03-26T06:21:12.192Z,80.70
2019-03-26T06:23:40.269Z,79.80
2019-03-26T06:26:06.519Z,78.30
2019-03-26T06:28:32.904Z,78.20
2019-03-26T06:31:13.606Z,76.40
2019-03-26T06:33:43.111Z,76.40
2019-03-26T06:36:09.317Z,76.30
2019-03-26T06:38:35.684Z,69.90
2019-03-26T06:41:01.883Z,63.50
2019-03-26T06:43:28.041Z,61.70
2019-03-26T06:45:54.250Z,61.60
2019-03-26T06:48:20.474Z,59.00
2019-03-26T06:50:46.704Z,56.60
2019-03-26T06:53:12.886Z,56.00
2019-03-26T06:55:39.080Z,56.50
2019-03-26T06:58:05.290Z,56.90
2019-03-26T07:00:32.893Z,55.80
2019-03-26T07:03:00.468Z,53.70
2019-03-26T07:05:26.648Z,51.50
2019-03-26T07:07:52.928Z,50.80
2019-03-26T07:10:22.949Z,52.30
2019-03-26T07:12:49.220Z,51.60
2019-03-26T07:15:15.417Z,53.40
2019-03-26T07:17:41.594Z,55.90
2019-03-26T07:20:09.204Z,58.30
2019-03-26T07:22:35.364Z,60.10
2019-03-26T07:25:02.464Z,61.60
2019-03-26T07:27:28.688Z,62.80
2019-03-26T07:29:54.859Z,65.00
2019-03-26T07:32:21.044Z,66.70
2019-03-26T07:34:47.262Z,67.60
2019-03-26T07:37:13.441Z,68.30
2019-03-26T07:39:39.604Z,66.70
2019-03-26T07:42:05.805Z,65.00
2019-03-26T07:44:33.012Z,61.80
2019-03-26T07:46:59.187Z,60.20
2019-03-26T07:49:25.426Z,63.90
2019-03-26T07:51:51.725Z,65.60
2019-03-26T07:54:17.950Z,65.80
2019-03-26T07:56:45.940Z,65.60
2019-03-26T07:59:12.135Z,64.70
2019-03-26T08:01:38.295Z,55.80
2019-03-26T08:04:04.472Z,47.30
2019-03-26T08:06:30.716Z,43.90
2019-03-26T08:08:56.896Z,45.40
2019-03-26T08:11:23.086Z,44.30
2019-03-26T08:13:49.299Z,37.10
2019-03-26T08:16:15.558Z,36.80
2019-03-26T08:18:41.761Z,39.70
2019-03-26T08:21:07.960Z,44.40
2019-03-26T08:23:34.129Z,49.80
2019-03-26T08:26:00.353Z,51.80
2019-03-26T08:28:26.863Z,52.50
2019-03-26T08:30:53.077Z,53.40
2019-03-26T08:33:19.248Z,55.00
2019-03-26T08:35:45.440Z,55.40
2019-03-26T08:38:13.565Z,53.80
2019-03-26T08:40:39.890Z,52.50
2019-03-26T08:43:06.099Z,51.10
2019-03-26T08:45:32.304Z,50.20
2019-03-26T08:47:58.500Z,47.70
2019-03-26T08:50:24.763Z,49.60
2019-03-26T08:52:50.932Z,49.40
2019-03-26T08:55:17.257Z,47.40
2019-03-26T08:57:43.469Z,44.30
2019-03-26T09:00:11.092Z,42.20
2019-03-26T09:02:37.471Z,42.80
2019-03-26T09:05:05.636Z,45.70
2019-03-26T09:07:31.978Z,48.50
2019-03-26T09:09:58.205Z,47.70
2019-03-26T09:12:24.465Z,44.60
2019-03-26T09:14:51.039Z,43.10
2019-03-26T09:17:19.727Z,42.40
2019-03-26T09:19:45.324Z,42.40
2019-03-26T09:22:11.509Z,42.90
2019-03-26T09:24:37.710Z,41.40
2019-03-26T09:27:03.961Z,40.20
2019-03-26T09:29:30.213Z,38.10
2019-03-26T09:31:56.407Z,37.80
2019-03-26T09:34:22.585Z,40.10
2019-03-26T09:36:48.772Z,39.40
2019-03-26T09:39:14.975Z,39.70
2019-03-26T09:41:41.148Z,39.60
2019-03-26T09:44:07.327Z,40.70
2019-03-26T09:46:33.498Z,43.50
2019-03-26T09:48:59.695Z,42.00
2019-03-26T09:51:25.850Z,43.80
2019-03-26T09:53:52.016Z,43.30
2019-03-26T09:56:28.127Z,42.60
2019-03-26T09:58:46.299Z,42.00
2019-03-26T10:01:12.497Z,41.90
2019-03-26T10:03:38.755Z,40.30
2019-03-26T10:06:04.924Z,40.00
2019-03-26T10:08:32.405Z,39.30
2019-03-26T10:10:58.584Z,37.00
2019-03-26T10:13:24.747Z,37.20
2019-03-26T10:15:50.934Z,37.20
2019-03-26T10:18:17.100Z,39.00
2019-03-26T10:20:43.263Z,39.20
2019-03-26T10:23:10.442Z,36.80
2019-03-26T10:25:36.837Z,35.40
2019-03-26T10:28:03.153Z,33.50
2019-03-26T10:30:34.934Z,34.40
2019-03-26T10:33:01.128Z,31.70
2019-03-26T10:35:27.309Z,30.00
2019-03-26T10:37:53.486Z,29.60
2019-03-26T10:40:31.848Z,31.80
2019-03-26T10:42:58.837Z,35.80
2019-03-26T10:45:25.134Z,36.10
2019-03-26T10:48:13.705Z,36.50
2019-03-26T10:50:39.938Z,37.50
2019-03-26T10:53:06.110Z,38.60
2019-03-26T10:55:32.326Z,35.90
2019-03-26T10:57:58.576Z,35.50
2019-03-26T11:00:25.471Z,35.70
2019-03-26T11:02:54.097Z,33.60
2019-03-26T11:05:21.131Z,33.20
2019-03-26T11:07:47.291Z,30.80
2019-03-26T11:10:13.594Z,28.30
2019-03-26T11:12:39.852Z,27.90
2019-03-26T11:15:07.740Z,29.00
2019-03-26T11:17:33.945Z,31.30
2019-03-26T11:20:00.372Z,33.00
2019-03-26T11:22:26.628Z,34.80
2019-03-26T11:24:52.817Z,34.80
2019-03-26T11:27:19.032Z,35.20
2019-03-26T11:29:45.243Z,34.40
2019-03-26T11:32:11.672Z,33.90
2019-03-26T11:34:37.866Z,28.20
2019-03-26T11:37:04.028Z,27.40
2019-03-26T11:39:32.968Z,27.20
2019-03-26T11:41:58.467Z,29.80
2019-03-26T11:44:24.666Z,30.90
2019-03-26T11:58:14.942Z,30.00
2019-03-26T12:00:41.188Z,33.70
2019-03-26T12:03:07.433Z,35.20
2019-03-26T12:05:33.632Z,37.10
2019-03-26T12:07:59.799Z,40.00
2019-03-26T12:10:26.001Z,40.70
2019-03-26T12:12:52.202Z,40.70
2019-03-26T12:15:18.488Z,40.70
2019-03-26T12:17:44.652Z,41.30
2019-03-26T12:20:11.980Z,42.50
2019-03-26T12:22:38.605Z,43.40
2019-03-26T12:25:06.682Z,44.40
2019-03-26T12:27:36.216Z,44.30
2019-03-26T12:30:02.659Z,44.20
2019-03-26T12:32:28.827Z,42.60
2019-03-26T12:34:55.033Z,43.10
2019-03-26T12:37:21.240Z,44.40
2019-03-26T12:39:58.919Z,42.90
2019-03-26T12:42:15.547Z,41.80
2019-03-26T12:44:41.733Z,41.90
2019-03-26T12:47:08.016Z,40.80
2019-03-26T12:49:34.964Z,41.80
2019-03-26T12:52:01.857Z,40.90
2019-03-26T12:54:28.038Z,40.60
2019-03-26T12:56:54.218Z,39.70
2019-03-26T12:59:20.411Z,40.10
2019-03-26T13:01:46.586Z,39.90
2019-03-26T13:04:16.765Z,39.90
2019-03-26T13:06:42.317Z,40.20
2019-03-26T13:09:08.546Z,41.30
2019-03-26T13:11:34.786Z,42.50
2019-03-26T13:14:01.312Z,44.50
2019-03-26T13:16:27.492Z,45.50
2019-03-26T13:18:53.759Z,44.90
2019-03-26T13:21:19.907Z,45.10
2019-03-26T13:23:54.285Z,44.70
2019-03-26T13:26:20.449Z,45.60
2019-03-26T13:28:48.644Z,44.20
2019-03-26T13:31:14.887Z,42.70
2019-03-26T13:33:41.267Z,42.10
2019-03-26T13:36:07.545Z,41.50
2019-03-26T13:38:33.745Z,42.80
2019-03-26T13:40:59.910Z,43.00
2019-03-26T13:43:26.237Z,42.90
2019-03-26T13:45:54.228Z,43.90
2019-03-26T13:48:20.799Z,44.30
2019-03-26T13:50:49.265Z,45.00
2019-03-26T13:53:15.444Z,44.40
2019-03-26T13:55:42.588Z,44.10
2019-03-26T13:58:08.851Z,45.50
2019-03-26T14:00:37.454Z,45.50
2019-03-26T14:03:04.041Z,45.80
2019-03-26T14:05:30.369Z,46.10
2019-03-26T14:07:56.539Z,46.60
2019-03-26T14:10:22.824Z,46.80
2019-03-26T14:12:49.072Z,43.40
2019-03-26T14:15:15.252Z,43.30
2019-03-26T14:17:41.454Z,43.20
2019-03-26T14:20:07.804Z,42.70
2019-03-26T14:22:34.085Z,43.70
2019-03-26T14:25:00.397Z,43.00
2019-03-26T14:27:26.744Z,43.40
2019-03-26T14:29:52.937Z,43.50
2019-03-26T14:32:19.091Z,44.00
2019-03-26T14:34:48.971Z,42.00
2019-03-26T14:37:13.375Z,42.40
2019-03-26T14:39:39.624Z,42.20
2019-03-26T14:42:05.789Z,43.00
2019-03-26T14:44:31.981Z,43.80
2019-03-26T14:46:58.135Z,44.00
2019-03-26T14:49:24.314Z,44.40
2019-03-26T14:51:50.520Z,44.80
2019-03-26T14:54:16.780Z,44.60
2019-03-26T14:56:42.948Z,40.60
2019-03-26T14:59:09.139Z,42.50
2019-03-26T15:01:35.377Z,41.30
2019-03-26T15:04:01.641Z,40.90
2019-03-26T15:06:27.999Z,40.90
2019-03-26T15:08:54.927Z,41.20
2019-03-26T15:11:22.048Z,42.10
2019-03-26T15:13:49.620Z,42.30
2019-03-26T15:16:15.959Z,43.60
2019-03-26T15:18:43.243Z,44.20
2019-03-26T15:21:09.451Z,45.20
2019-03-26T15:23:35.603Z,45.80
2019-03-26T15:26:01.806Z,46.30
2019-03-26T15:28:27.955Z,45.70
2019-03-26T15:30:54.117Z,45.10
2019-03-26T15:33:20.409Z,45.90
2019-03-26T15:35:46.584Z,46.40
2019-03-26T15:38:12.775Z,46.30
2019-03-26T15:40:38.958Z,46.60
2019-03-26T15:43:05.153Z,45.80
2019-03-26T15:45:31.309Z,45.80
2019-03-26T15:47:58.713Z,46.30
2019-03-26T15:50:40.820Z,47.40
2019-03-26T15:53:07.209Z,47.10
2019-03-26T15:55:33.406Z,47.60
2019-03-26T15:57:59.981Z,48.60
2019-03-26T16:00:29.378Z,47.40
2019-03-26T16:02:55.819Z,48.00
2019-03-26T16:05:21.986Z,47.70
2019-03-26T16:07:48.740Z,47.80
2019-03-26T16:10:15.108Z,47.90
2019-03-26T16:12:41.667Z,46.70
2019-03-26T16:15:08.209Z,46.90
2019-03-26T16:17:34.687Z,47.00
2019-03-26T16:20:00.904Z,47.10
2019-03-26T16:22:27.092Z,47.60
2019-03-26T16:24:53.550Z,48.40
2019-03-26T16:27:19.823Z,48.30
2019-03-26T16:29:46.051Z,49.10
2019-03-26T16:32:12.308Z,49.30
2019-03-26T16:34:38.481Z,50.00
2019-03-26T16:37:04.748Z,50.50
2019-03-26T16:39:32.016Z,50.90
2019-03-26T16:41:58.209Z,51.00
2019-03-26T16:44:24.361Z,50.70
2019-03-26T16:46:50.521Z,51.40
2019-03-26T16:49:16.711Z,51.90
2019-03-26T16:51:42.920Z,51.70
2019-03-26T16:54:09.106Z,51.90
2019-03-26T16:56:35.267Z,52.00
2019-03-26T16:59:01.452Z,52.10
2019-03-26T17:01:27.611Z,52.40
2019-03-26T17:03:54.799Z,52.50
2019-03-26T17:06:22.125Z,53.20
2019-03-26T17:08:48.328Z,53.40
2019-03-26T17:11:14.544Z,54.00
2019-03-26T17:13:40.747Z,54.00
2019-03-26T17:16:07.130Z,54.30
2019-03-26T17:18:33.291Z,54.60
2019-03-26T17:20:59.480Z,54.80
2019-03-26T17:23:25.682Z,55.90
2019-03-26T17:25:51.829Z,55.30
2019-03-26T17:28:17.993Z,55.60
2019-03-26T17:30:44.180Z,56.20
2019-03-26T17:33:10.340Z,56.60
2019-03-26T17:35:36.512Z,56.80
2019-03-26T17:38:02.683Z,56.60
2019-03-26T17:40:28.871Z,57.10
2019-03-26T17:42:55.032Z,57.30
2019-03-26T17:45:21.219Z,57.80
2019-03-26T17:47:47.379Z,57.90
2019-03-26T17:50:13.908Z,58.20
2019-03-26T17:52:40.116Z,58.80
2019-03-26T17:55:07.833Z,58.00
2019-03-26T17:57:33.982Z,57.90
2019-03-26T18:00:00.414Z,58.00
2019-03-26T18:02:26.705Z,58.90
2019-03-26T18:04:53.431Z,58.90
2019-03-26T18:07:19.600Z,59.10
2019-03-26T18:09:45.784Z,59.20
2019-03-26T18:12:11.948Z,59.40
2019-03-26T18:14:38.124Z,59.20
2019-03-26T18:17:05.273Z,59.90
2019-03-26T18:19:31.468Z,60.50
2019-03-26T18:21:57.610Z,59.70
2019-03-26T18:24:23.828Z,60.50
2019-03-26T18:26:49.979Z,59.70
2019-03-26T18:29:17.225Z,60.40
2019-03-26T18:31:43.431Z,60.40
2019-03-26T18:34:09.603Z,60.40
2019-03-26T18:36:35.773Z,61.00
2019-03-26T18:39:04.851Z,61.30
2019-03-26T18:41:31.120Z,61.20
2019-03-26T18:43:57.357Z,61.00
2019-03-26T18:46:23.559Z,61.20
2019-03-26T18:48:49.720Z,61.00
2019-03-26T18:51:15.949Z,60.80
2019-03-26T18:53:43.155Z,61.10
2019-03-26T18:56:09.328Z,61.60
2019-03-26T18:58:35.487Z,61.90
2019-03-26T19:01:01.755Z,61.70
2019-03-26T19:03:28.308Z,61.70
2019-03-26T19:05:54.467Z,62.10
2019-03-26T19:08:20.647Z,62.10
2019-03-26T19:10:46.837Z,62.50
2019-03-26T19:13:19.261Z,62.50
2019-03-26T19:15:41.126Z,62.40
2019-03-26T19:18:07.275Z,62.80
2019-03-26T19:20:33.663Z,62.70
2019-03-26T19:22:59.882Z,63.10
2019-03-26T19:25:26.052Z,63.20
2019-03-26T19:27:52.305Z,63.10
2019-03-26T19:30:18.490Z,63.30
2019-03-26T19:32:44.678Z,63.10
2019-03-26T19:35:11.023Z,63.20
2019-03-26T19:37:37.179Z,63.60
2019-03-26T19:40:05.176Z,63.20
2019-03-26T19:42:31.507Z,63.90
2019-03-26T19:44:58.680Z,63.70
2019-03-26T19:47:24.852Z,63.40
2019-03-26T19:49:51.032Z,63.50
2019-03-26T19:52:17.184Z,63.80
2019-03-26T19:54:43.475Z,63.80
2019-03-26T19:57:09.653Z,63.80
2019-03-26T19:59:36.120Z,64.00
2019-03-26T20:02:02.685Z,64.00
2019-03-26T20:04:29.179Z,64.30
2019-03-26T20:06:55.356Z,64.50
2019-03-26T20:09:21.649Z,65.00
2019-03-26T20:11:47.917Z,64.70
2019-03-26T20:14:14.087Z,65.20
2019-03-26T20:16:42.035Z,64.50
2019-03-26T20:19:08.344Z,65.40
2019-03-26T20:21:34.523Z,64.90
2019-03-26T20:24:00.681Z,64.70
2019-03-26T20:26:27.072Z,65.50
2019-03-26T20:28:53.279Z,65.00
2019-03-26T20:31:19.488Z,65.00
2019-03-26T20:33:48.285Z,65.20
2019-03-26T20:36:14.469Z,64.90
2019-03-26T20:38:40.721Z,65.30
2019-03-26T20:41:06.995Z,64.90
2019-03-26T20:43:37.430Z,64.80
2019-03-26T20:46:01.239Z,64.90
2019-03-26T20:48:27.498Z,64.00
2019-03-26T20:50:56.897Z,64.80
2019-03-26T20:53:21.711Z,64.90
2019-03-26T20:55:54.194Z,65.60
2019-03-26T20:58:15.983Z,64.70
2019-03-26T21:00:43.201Z,65.20
2019-03-26T21:03:09.760Z,65.60
2019-03-26T21:05:36.224Z,65.10
2019-03-26T21:08:03.158Z,65.30
2019-03-26T21:10:29.412Z,65.00
2019-03-26T21:12:57.185Z,65.60
2019-03-26T21:15:27.339Z,65.10
2019-03-26T21:17:53.507Z,65.00
2019-03-26T21:20:19.672Z,65.70
2019-03-26T21:22:47.847Z,65.70
2019-03-26T21:25:14.323Z,65.60
2019-03-26T21:27:42.472Z,65.50
2019-03-26T21:30:15.363Z,65.80
2019-03-26T21:32:38.862Z,65.90
2019-03-26T21:35:06.031Z,66.20
2019-03-26T21:37:32.191Z,66.20
2019-03-26T21:39:58.369Z,66.20
2019-03-26T21:42:24.811Z,66.70
2019-03-26T21:44:51.060Z,66.40
2019-03-26T21:47:17.228Z,66.70
2019-03-26T21:49:43.416Z,66.50
2019-03-26T21:52:09.587Z,66.40
2019-03-26T21:54:35.755Z,66.80
2019-03-26T21:57:01.940Z,66.70
2019-03-26T21:59:29.195Z,67.10
2019-03-26T22:01:55.420Z,67.60
2019-03-26T22:04:21.594Z,67.20
2019-03-26T22:06:48.381Z,67.40
2019-03-26T22:09:14.548Z,66.90
2019-03-26T22:11:49.595Z,67.40
2019-03-26T22:14:18.078Z,67.60
2019-03-26T22:16:36.881Z,67.70
2019-03-26T22:19:03.068Z,68.00
2019-03-26T22:21:29.264Z,67.90
2019-03-26T22:23:57.101Z,68.40
2019-03-26T22:26:24.291Z,68.50
2019-03-26T22:28:51.397Z,68.60
2019-03-26T22:31:17.553Z,68.70
2019-03-26T22:33:43.729Z,68.80
2019-03-26T22:36:09.897Z,69.30
2019-03-26T22:38:36.085Z,69.60
2019-03-26T22:41:02.246Z,69.40
2019-03-26T22:43:28.387Z,70.00
2019-03-26T22:45:54.603Z,70.20
2019-03-26T22:48:20.795Z,70.40
2019-03-26T22:50:46.943Z,70.00
2019-03-26T22:53:13.124Z,70.30
2019-03-26T22:55:39.279Z,70.80
2019-03-26T22:58:05.466Z,70.20
2019-03-26T23:00:32.621Z,70.10
2019-03-26T23:03:00.770Z,70.50
2019-03-26T23:05:26.947Z,70.40
2019-03-26T23:07:53.129Z,70.90
2019-03-26T23:10:19.626Z,70.60
2019-03-26T23:12:45.895Z,71.00
2019-03-26T23:15:14.973Z,71.20
2019-03-26T23:17:41.247Z,71.30
2019-03-26T23:20:07.415Z,70.90
2019-03-26T23:22:33.591Z,70.80
2019-03-26T23:25:01.154Z,70.70
2019-03-26T23:27:27.340Z,70.90
2019-03-26T23:29:53.592Z,70.40
2019-03-26T23:32:19.752Z,70.70
2019-03-26T23:34:47.037Z,70.40
2019-03-26T23:37:13.215Z,70.10
2019-03-26T23:39:39.387Z,70.30
2019-03-26T23:42:05.581Z,69.70
2019-03-26T23:44:31.768Z,69.10
2019-03-26T23:46:57.952Z,69.30
2019-03-26T23:49:24.192Z,69.20
2019-03-26T23:51:50.475Z,68.80
2019-03-26T23:54:16.856Z,69.10
2019-03-26T23:56:43.032Z,69.50
2019-03-26T23:59:09.196Z,69.70
